Time;durP1;ratioP1;P1;durP2;ratioP2;P2;SDS_P1;SDS_P2;PMS_P1;PMS_P2;Temp;Humidity;BMP_temperature;BMP_pressure;BME280_temperature;BME280_humidity;BME280_pressure;Samples;Min_cycle;Max_cycle;Signal;HPM_P1;HPM_P2
2023/09/28 00:04:53;;;;;;;8.07;7.00;;;;;;;18.18;52.54;99894.28;10444423;28;20972;-72
2023/09/28 00:09:55;;;;;;;11.07;7.10;;;;;;;18.72;51.84;99840.03;10451238;28;20235;-72
2023/09/28 00:14:56;;;;;;;8.67;7.47;;;;;;;18.31;52.97;99849.97;10455240;28;20680;-72
2023/09/28 00:19:58;;;;;;;9.30;6.37;;;;;;;18.63;51.79;99872.94;10452660;28;20239;-71
2023/09/28 00:25:00;;;;;;;9.47;7.00;;;;;;;19.50;49.58;99871.25;10451760;28;20403;-72
2023/09/28 00:30:03;;;;;;;10.70;6.63;;;;;;;18.64;51.29;99914.38;10456393;28;20615;-72
2023/09/28 00:35:06;;;;;;;9.60;6.67;;;;;;;19.04;50.43;99902.84;10455675;28;20228;-73
2023/09/28 00:40:27;;;;;;;10.87;7.00;;;;;;;18.88;50.31;99877.28;10454559;28;20231;-73
2023/09/28 00:45:29;;;;;;;7.90;6.10;;;;;;;18.51;51.58;99863.13;10456216;28;20230;-73
2023/09/28 00:50:32;;;;;;;12.33;7.00;;;;;;;18.92;51.12;99829.66;10454777;28;20258;-72
2023/09/28 00:55:36;;;;;;;7.47;6.32;;;;;;;18.69;51.31;99873.84;10454607;28;20238;-73
2023/09/28 01:00:40;;;;;;;7.30;6.50;;;;;;;17.81;52.48;99933.13;10451562;28;20621;-72
2023/09/28 01:05:42;;;;;;;7.33;6.30;;;;;;;18.48;51.96;99836.53;10455286;28;20318;-72
2023/09/28 01:10:44;;;;;;;7.20;6.50;;;;;;;17.15;53.69;99919.34;10452999;28;20231;-72
2023/09/28 01:15:48;;;;;;;8.20;6.87;;;;;;;17.67;53.12;99861.31;10452683;28;20227;-72
2023/09/28 01:20:51;;;;;;;10.20;6.80;;;;;;;17.74;52.92;99851.22;10451772;28;20243;-73
2023/09/28 01:25:53;;;;;;;9.87;6.57;;;;;;;16.87;54.09;99933.34;10451844;28;20607;-71
2023/09/28 01:30:56;;;;;;;7.97;6.57;;;;;;;16.72;54.90;99897.72;10454485;28;20242;-72
2023/09/28 01:35:58;;;;;;;10.17;6.60;;;;;;;17.08;54.43;99885.34;10454565;28;20232;-72
2023/09/28 01:41:00;;;;;;;9.70;6.33;;;;;;;17.79;53.73;99813.47;10453593;28;20312;-72
2023/09/28 01:46:01;;;;;;;8.73;6.07;;;;;;;17.12;53.69;99911.72;10454870;28;20329;-72
2023/09/28 01:51:03;;;;;;;9.13;6.27;;;;;;;18.33;51.12;99854.06;10452929;28;20238;-69
2023/09/28 01:56:05;;;;;;;9.80;6.07;;;;;;;17.32;52.76;99918.75;10452264;28;20273;-71
2023/09/28 02:01:07;;;;;;;8.70;5.73;;;;;;;18.52;50.51;99859.38;10450796;28;20237;-69
2023/09/28 02:06:09;;;;;;;8.03;5.37;;;;;;;18.14;50.82;99912.06;10451396;28;20676;-69
2023/09/28 02:11:11;;;;;;;7.60;5.50;;;;;;;17.84;50.93;99939.97;10451952;28;20228;-70
2023/09/28 02:16:13;;;;;;;7.33;5.20;;;;;;;18.21;50.76;99875.69;10450880;28;20223;-70
2023/09/28 02:21:15;;;;;;;6.17;5.07;;;;;;;18.06;50.39;99914.03;10450183;28;20285;-70
2023/09/28 02:26:16;;;;;;;7.20;4.90;;;;;;;17.08;52.67;99959.16;10451106;28;20313;-69
2023/09/28 02:31:18;;;;;;;6.27;5.13;;;;;;;18.16;50.61;99912.66;10448983;28;20267;-70
2023/09/28 02:36:20;;;;;;;8.27;4.93;;;;;;;16.34;54.04;99977.81;10446763;28;20223;-70
2023/09/28 02:41:22;;;;;;;5.57;4.93;;;;;;;17.94;51.50;99877.19;10449719;28;20323;-69
2023/09/28 02:46:25;;;;;;;8.67;5.83;;;;;;;18.67;49.41;99908.50;10452108;28;20231;-70
2023/09/28 02:51:27;;;;;;;5.87;4.77;;;;;;;18.83;49.33;99934.91;10450818;28;20241;-69
2023/09/28 02:56:29;;;;;;;6.50;5.50;;;;;;;17.76;50.83;99981.72;10446632;28;20243;-70
2023/09/28 03:01:31;;;;;;;7.60;5.17;;;;;;;17.93;50.83;99927.75;10448269;28;20243;-69
2023/09/28 03:06:40;;;;;;;7.17;5.37;;;;;;;17.27;52.48;99946.47;10442314;28;20297;-69
2023/09/28 03:11:42;;;;;;;7.03;5.40;;;;;;;16.60;53.51;99939.00;10443390;28;20236;-70
2023/09/28 03:16:44;;;;;;;5.70;5.10;;;;;;;15.43;55.41;100022.78;10446518;28;20247;-70
2023/09/28 03:21:45;;;;;;;7.77;5.50;;;;;;;17.01;53.17;99880.00;10447303;28;20232;-69
2023/09/28 03:26:47;;;;;;;6.07;5.23;;;;;;;16.77;53.12;99955.47;10445228;28;20732;-70
2023/09/28 03:32:08;;;;;;;6.27;5.00;;;;;;;17.81;50.88;99937.72;10445999;28;20231;-69
2023/09/28 03:37:10;;;;;;;8.23;5.23;;;;;;;17.67;50.72;99983.09;10439247;28;20231;-69
2023/09/28 03:42:12;;;;;;;6.47;5.37;;;;;;;16.47;51.69;100076.84;10418940;28;20331;-69
2023/09/28 03:47:14;;;;;;;6.33;4.90;;;;;;;16.27;53.13;99989.72;10438141;28;20681;-69
2023/09/28 03:52:16;;;;;;;11.43;5.73;;;;;;;16.20;53.25;99977.06;10440225;28;20228;-68
2023/09/28 03:57:17;;;;;;;7.23;5.80;;;;;;;17.52;50.72;99935.56;10447840;28;20234;-68
2023/09/28 04:02:19;;;;;;;8.43;5.57;;;;;;;16.80;51.22;100019.03;10443020;28;20731;-69
2023/09/28 04:07:21;;;;;;;5.23;4.73;;;;;;;16.78;51.28;99997.63;10440730;28;20231;-69
2023/09/28 04:12:22;;;;;;;7.70;5.30;;;;;;;17.88;49.03;99947.44;10446037;28;20627;-69
2023/09/28 04:17:24;;;;;;;6.63;5.10;;;;;;;17.39;50.01;99967.34;10442039;28;20726;-69
2023/09/28 04:22:26;;;;;;;5.20;4.63;;;;;;;16.50;51.28;100032.34;10443338;28;20239;-69
2023/09/28 04:27:28;;;;;;;6.93;5.13;;;;;;;17.12;50.97;99952.25;10406042;28;20231;-69
2023/09/28 04:32:31;;;;;;;7.77;4.33;;;;;;;17.22;50.18;99977.94;10445795;28;20709;-70
2023/09/28 04:37:33;;;;;;;6.53;4.43;;;;;;;17.32;49.92;99983.66;10448274;28;20247;-70
2023/09/28 04:42:34;;;;;;;6.50;5.13;;;;;;;17.47;49.98;99964.34;10448631;28;20762;-70
2023/09/28 04:47:36;;;;;;;6.43;4.93;;;;;;;17.83;49.28;99959.97;10452933;28;20235;-70
2023/09/28 04:52:38;;;;;;;8.57;5.30;;;;;;;17.21;50.36;100004.16;10452824;28;20235;-71
2023/09/28 04:57:39;;;;;;;6.73;5.40;;;;;;;16.59;51.40;100067.00;10451406;28;20228;-69
2023/09/28 05:05:15;;;;;;;7.17;5.17;;;;;;;15.92;53.66;99909.13;10380166;27;20836;-69
2023/09/28 05:10:17;;;;;;;7.63;5.53;;;;;;;14.25;56.79;99995.63;10326196;28;20237;-71
2023/09/28 05:15:19;;;;;;;6.60;5.40;;;;;;;14.94;55.07;99959.44;10350927;28;20345;-71
2023/09/28 05:20:20;;;;;;;6.60;5.27;;;;;;;15.55;53.78;99941.28;10346684;28;20245;-71
2023/09/28 05:25:25;;;;;;;8.23;5.47;;;;;;;14.92;54.03;100042.34;10350044;28;20237;-70
2023/09/28 05:30:27;;;;;;;7.00;5.17;;;;;;;14.97;54.91;99961.72;10347321;28;20233;-70
2023/09/28 05:35:29;;;;;;;8.67;5.23;;;;;;;14.51;55.27;99986.75;10344528;28;20233;-71
2023/09/28 05:40:31;;;;;;;10.00;5.13;;;;;;;14.04;57.01;99968.63;10347350;28;20261;-71
2023/09/28 05:45:33;;;;;;;6.53;4.60;;;;;;;15.14;54.37;99881.25;10346874;28;20828;-71
2023/09/28 05:50:34;;;;;;;6.47;4.77;;;;;;;15.53;53.06;99957.63;10341508;28;20735;-71
2023/09/28 05:55:36;;;;;;;8.70;4.63;;;;;;;15.74;52.96;99944.91;10352609;28;20724;-71
2023/09/28 06:00:39;;;;;;;7.53;4.77;;;;;;;16.03;52.38;99919.25;10339431;28;20251;-71
2023/09/28 06:05:41;;;;;;;6.43;4.97;;;;;;;16.00;52.36;99960.97;10342057;28;20225;-71
2023/09/28 06:10:44;;;;;;;7.40;4.77;;;;;;;15.50;53.09;100039.81;10340443;28;20315;-70
2023/09/28 06:15:48;;;;;;;7.77;5.47;;;;;;;15.29;54.48;100013.09;10321348;28;20249;-71
2023/09/28 06:20:50;;;;;;;7.63;4.93;;;;;;;15.69;52.96;100019.22;10314705;28;20288;-71
2023/09/28 06:25:52;;;;;;;8.37;5.50;;;;;;;14.23;55.79;100105.34;10320422;28;20237;-71
2023/09/28 06:30:54;;;;;;;6.97;5.00;;;;;;;15.07;53.78;100104.94;10315810;28;20257;-71
2023/09/28 06:35:57;;;;;;;8.40;5.37;;;;;;;14.93;54.51;100095.19;10317156;28;20242;-71
2023/09/28 06:40:59;;;;;;;10.10;5.70;;;;;;;14.42;55.53;100126.09;10314651;28;20837;-71
2023/09/28 06:46:01;;;;;;;6.97;4.67;;;;;;;16.25;52.58;99998.81;10315598;28;20221;-71
2023/09/28 06:51:03;;;;;;;8.90;5.47;;;;;;;15.45;54.00;100074.66;10317271;28;20702;-71
2023/09/28 06:56:05;;;;;;;7.50;5.40;;;;;;;16.12;52.58;100044.78;10313553;28;20250;-71
2023/09/28 07:01:15;;;;;;;6.50;5.60;;;;;;;15.76;53.60;100072.31;10314585;28;20238;-71
2023/09/28 07:06:17;;;;;;;6.90;5.63;;;;;;;15.38;54.75;100073.00;10318097;28;20319;-71
2023/09/28 07:11:19;;;;;;;6.60;5.33;;;;;;;15.37;54.96;100061.41;10314936;28;20772;-70
2023/09/28 07:16:21;;;;;;;6.77;5.33;;;;;;;16.36;53.18;100028.91;10312732;28;20345;-71
2023/09/28 07:21:23;;;;;;;7.27;4.87;;;;;;;16.24;53.42;100088.97;10309231;28;20241;-70
2023/09/28 07:26:25;;;;;;;6.17;4.80;;;;;;;16.03;53.92;100097.38;10319046;28;20717;-71
2023/09/28 07:31:27;;;;;;;7.17;4.57;;;;;;;16.90;52.19;100083.41;10314609;28;20332;-70
2023/09/28 07:36:29;;;;;;;8.57;4.47;;;;;;;17.37;51.60;100032.50;10315771;28;20249;-71
2023/09/28 07:41:31;;;;;;;6.83;4.33;;;;;;;16.74;52.25;100085.59;10311948;28;20234;-70
2023/09/28 07:46:33;;;;;;;5.90;4.17;;;;;;;17.14;51.33;100073.69;10313892;28;20238;-72
2023/09/28 07:51:35;;;;;;;5.67;4.70;;;;;;;17.39;50.56;100076.38;10309903;28;20264;-70
2023/09/28 07:56:37;;;;;;;6.07;4.30;;;;;;;16.66;51.85;100122.88;10312341;28;20661;-72
2023/09/28 08:01:39;;;;;;;7.87;4.80;;;;;;;17.16;51.22;100075.13;10313458;28;20240;-71
2023/09/28 08:06:42;;;;;;;5.60;4.40;;;;;;;17.03;51.74;100101.44;10313771;28;20237;-71
2023/09/28 08:11:44;;;;;;;6.37;4.17;;;;;;;17.35;51.02;100064.34;10312178;28;20795;-71
2023/09/28 08:16:46;;;;;;;7.43;4.37;;;;;;;17.51;50.92;100071.91;10313489;28;20327;-71
2023/09/28 08:21:48;;;;;;;5.70;3.90;;;;;;;17.36;50.99;100114.69;10314353;28;20269;-70
2023/09/28 08:26:50;;;;;;;5.57;4.13;;;;;;;17.41;50.94;100105.91;10315958;28;21076;-70
2023/09/28 08:31:54;;;;;;;5.65;3.70;;;;;;;18.24;49.24;100085.66;10310043;28;20226;-71
2023/09/28 08:36:56;;;;;;;6.18;4.00;;;;;;;18.20;50.01;100087.16;10313532;28;20600;-71
2023/09/28 08:42:02;;;;;;;11.32;4.03;;;;;;;18.10;50.00;100121.03;10312886;28;20232;-70
2023/09/28 08:47:14;;;;;;;5.55;4.05;;;;;;;18.62;49.49;100115.19;10314016;28;20245;-71
2023/09/28 08:52:17;;;;;;;4.32;3.45;;;;;;;18.28;49.46;100165.41;10310173;28;20234;-71
2023/09/28 08:57:19;;;;;;;4.90;3.85;;;;;;;18.38;48.63;100175.75;10316260;28;20229;-69
2023/09/28 09:02:22;;;;;;;6.78;3.85;;;;;;;18.70;48.86;100135.72;10313657;28;20284;-71
2023/09/28 09:07:24;;;;;;;5.07;3.47;;;;;;;18.43;49.16;100168.56;10315559;28;20645;-71
2023/09/28 09:12:28;;;;;;;5.20;3.92;;;;;;;18.63;48.64;100192.72;10312760;28;20234;-71
2023/09/28 09:17:35;;;;;;;5.72;3.85;;;;;;;19.15;47.87;100173.25;10316469;28;20617;-71
2023/09/28 09:22:38;;;;;;;4.68;3.55;;;;;;;19.26;47.58;100133.63;10308980;28;20230;-70
2023/09/28 09:27:54;;;;;;;5.25;3.78;;;;;;;19.40;47.60;100145.09;10315445;28;20687;-70
2023/09/28 09:32:56;;;;;;;5.25;3.72;;;;;;;20.19;46.40;100114.03;10328762;28;20226;-71
2023/09/28 09:37:57;;;;;;;6.40;3.72;;;;;;;19.93;47.42;100108.84;10312572;28;20209;-71
2023/09/28 09:43:08;;;;;;;5.70;3.72;;;;;;;20.31;45.98;100144.69;10313003;28;20815;-70
2023/09/28 09:48:11;;;;;;;6.85;3.60;;;;;;;20.28;45.85;100147.91;10317402;28;20253;-71
2023/09/28 09:53:15;;;;;;;6.72;3.30;;;;;;;19.73;46.09;100168.97;10319241;28;20241;-70
2023/09/28 09:58:21;;;;;;;4.88;3.47;;;;;;;20.68;44.41;100107.09;10323531;28;20237;-71
2023/09/28 10:03:23;;;;;;;5.32;3.40;;;;;;;20.59;44.26;100134.91;10320349;28;20372;-71
2023/09/28 10:08:27;;;;;;;4.13;3.40;;;;;;;20.38;44.40;100169.84;10320351;28;20863;-71
2023/09/28 10:13:31;;;;;;;8.00;3.70;;;;;;;20.74;44.97;100115.34;10323278;28;20249;-71
2023/09/28 10:18:36;;;;;;;3.85;3.40;;;;;;;20.76;45.01;100083.28;10320179;28;20786;-71
2023/09/28 10:23:40;;;;;;;5.18;3.78;;;;;;;21.12;44.50;100084.75;10317579;28;20242;-70
2023/09/28 10:29:09;;;;;;;4.22;3.10;;;;;;;21.01;44.43;100127.25;10319532;28;20983;-70
2023/09/28 10:34:20;;;;;;;4.63;3.20;;;;;;;22.12;42.67;100065.72;10319195;28;20225;-70
2023/09/28 10:39:22;;;;;;;6.50;3.55;;;;;;;21.92;42.98;100076.34;10319129;28;20233;-70
2023/09/28 10:44:25;;;;;;;4.70;2.90;;;;;;;22.16;42.70;100101.47;10319642;28;20316;-70
2023/09/28 10:49:28;;;;;;;5.45;3.28;;;;;;;21.77;42.58;100129.53;10316633;28;20256;-69
2023/09/28 10:54:30;;;;;;;5.03;3.83;;;;;;;22.75;42.15;100062.56;10318959;28;20237;-69
2023/09/28 10:59:31;;;;;;;5.43;3.15;;;;;;;22.80;40.99;100065.31;10308205;28;20240;-69
2023/09/28 11:06:16;;;;;;;5.20;3.35;;;;;;;21.37;43.30;100069.91;10459098;27;20814;-70
2023/09/28 11:11:18;;;;;;;7.38;3.25;;;;;;;21.23;44.09;100088.44;10418416;28;20322;-71
2023/09/28 11:16:20;;;;;;;3.25;2.58;;;;;;;22.05;42.92;100039.75;10410116;28;20252;-71
2023/09/28 11:21:22;;;;;;;4.28;2.88;;;;;;;21.25;42.65;100110.78;10407204;28;20231;-71
2023/09/28 11:26:24;;;;;;;5.43;3.08;;;;;;;21.94;42.08;100041.53;10477107;28;20223;-71
2023/09/28 11:31:27;;;;;;;3.25;2.60;;;;;;;21.91;41.64;100080.16;10503622;28;20762;-71
2023/09/28 11:36:31;;;;;;;3.60;3.05;;;;;;;22.58;41.47;100034.59;10503244;28;20234;-72
2023/09/28 11:41:32;;;;;;;3.85;2.90;;;;;;;23.06;40.44;100020.00;10500644;28;20339;-71
2023/09/28 11:46:36;;;;;;;3.78;2.83;;;;;;;22.36;41.72;100010.91;10503869;28;20249;-71
2023/09/28 11:51:39;;;;;;;6.88;3.50;;;;;;;22.35;40.81;100025.63;10500611;28;20230;-71
2023/09/28 11:56:41;;;;;;;4.25;3.03;;;;;;;22.31;41.24;100008.16;10504281;28;20226;-71
2023/09/28 12:01:44;;;;;;;6.22;3.28;;;;;;;22.05;40.99;100056.94;10502678;28;20595;-70
2023/09/28 12:06:46;;;;;;;3.90;2.97;;;;;;;22.59;41.42;100008.94;10504468;28;20231;-71
2023/09/28 12:11:49;;;;;;;3.35;2.85;;;;;;;23.51;39.66;99998.66;10495304;28;20234;-71
2023/09/28 12:16:54;;;;;;;3.92;2.67;;;;;;;23.91;39.24;99958.94;10476454;28;20318;-70
2023/09/28 12:21:56;;;;;;;6.03;2.65;;;;;;;23.90;39.60;99970.16;10467922;28;20223;-71
2023/09/28 12:26:59;;;;;;;3.13;2.65;;;;;;;22.19;40.54;100041.00;10472506;28;20607;-71
2023/09/28 12:32:01;;;;;;;4.05;2.70;;;;;;;23.42;39.63;99968.31;10473631;28;20223;-70
2023/09/28 12:37:03;;;;;;;7.38;3.25;;;;;;;23.89;39.81;99950.22;10469446;28;20771;-71
2023/09/28 12:42:04;;;;;;;4.97;2.95;;;;;;;23.93;39.14;99959.50;10469778;28;20231;-71
2023/09/28 12:47:06;;;;;;;4.15;2.70;;;;;;;23.58;38.53;99962.91;10469375;28;20230;-72
2023/09/28 12:52:08;;;;;;;3.97;2.40;;;;;;;23.21;39.08;99963.84;10464444;28;20902;-71
2023/09/28 12:57:11;;;;;;;5.13;2.88;;;;;;;23.10;39.65;99967.63;10459241;28;20226;-70
2023/09/28 13:02:14;;;;;;;3.58;2.55;;;;;;;23.22;38.67;99966.31;10462195;28;20239;-70
2023/09/28 13:07:16;;;;;;;3.47;2.80;;;;;;;23.68;39.13;99918.47;10469184;28;20751;-70
2023/09/28 13:12:17;;;;;;;5.88;2.78;;;;;;;23.85;38.01;99919.03;10467280;28;20258;-71
2023/09/28 13:17:19;;;;;;;3.45;2.53;;;;;;;23.41;38.68;99963.94;10469222;28;20232;-70
2023/09/28 13:22:23;;;;;;;3.47;2.67;;;;;;;23.52;38.20;99964.81;10468833;28;20230;-71
2023/09/28 13:27:25;;;;;;;3.70;2.47;;;;;;;23.91;37.64;99890.63;10467503;28;20250;-71
2023/09/28 13:32:27;;;;;;;3.78;2.72;;;;;;;23.92;38.36;99894.19;10464939;28;20246;-71
2023/09/28 13:37:29;;;;;;;4.38;2.72;;;;;;;24.11;37.71;99887.09;10469984;28;20778;-69
2023/09/28 13:42:31;;;;;;;4.80;2.80;;;;;;;23.69;38.33;99917.38;10470692;28;20292;-69
2023/09/28 13:47:33;;;;;;;3.13;2.50;;;;;;;23.82;38.50;99927.81;10472287;28;20322;-70
2023/09/28 13:52:35;;;;;;;3.97;2.97;;;;;;;22.65;39.69;99887.94;10466760;28;20246;-70
2023/09/28 13:57:37;;;;;;;3.50;2.53;;;;;;;23.21;39.20;99874.63;10471581;28;20721;-69
2023/09/28 14:02:41;;;;;;;4.97;2.78;;;;;;;24.20;38.28;99818.25;10465649;28;20326;-68
2023/09/28 14:07:44;;;;;;;3.72;2.75;;;;;;;24.36;38.03;99842.56;10467943;28;20291;-68
2023/09/28 14:12:47;;;;;;;6.00;2.55;;;;;;;23.72;38.38;99895.81;10469153;28;20235;-69
2023/09/28 14:17:49;;;;;;;2.83;2.28;;;;;;;23.78;38.28;99858.38;10471031;28;20623;-70
2023/09/28 14:22:51;;;;;;;2.63;2.40;;;;;;;23.61;38.40;99872.28;10467840;28;20263;-70
2023/09/28 14:27:54;;;;;;;4.20;2.95;;;;;;;24.35;37.26;99851.03;10468796;28;20304;-69
2023/09/28 14:32:55;;;;;;;3.17;2.70;;;;;;;24.72;38.01;99845.22;10467524;28;20231;-70
2023/09/28 14:37:58;;;;;;;2.30;2.10;;;;;;;24.41;38.23;99860.88;10468223;28;20203;-69
2023/09/28 14:43:03;;;;;;;3.92;2.53;;;;;;;24.74;37.04;99867.66;10467197;28;20270;-68
2023/09/28 14:48:06;;;;;;;2.95;2.42;;;;;;;24.65;37.38;99831.00;10470408;28;20273;-68
2023/09/28 14:53:08;;;;;;;3.53;2.70;;;;;;;25.06;37.27;99832.78;10465796;28;20697;-69
2023/09/28 14:58:13;;;;;;;6.45;2.85;;;;;;;24.79;37.20;99839.47;10467938;28;20231;-69
2023/09/28 15:03:15;;;;;;;3.00;2.50;;;;;;;24.80;37.11;99805.53;10469615;28;20234;-69
2023/09/28 15:08:17;;;;;;;3.13;2.78;;;;;;;24.97;37.47;99820.78;10463147;28;20235;-68
2023/09/28 15:13:19;;;;;;;3.28;2.80;;;;;;;24.86;37.46;99809.88;10469631;28;20258;-68
2023/09/28 15:18:21;;;;;;;3.65;2.70;;;;;;;24.94;36.77;99822.16;10468563;28;20227;-69
2023/09/28 15:23:23;;;;;;;3.55;2.53;;;;;;;24.90;37.50;99827.38;10466777;28;20530;-69
2023/09/28 15:28:25;;;;;;;5.15;2.80;;;;;;;24.63;36.18;99838.69;10467580;28;20227;-69
2023/09/28 15:33:27;;;;;;;5.05;2.90;;;;;;;25.11;35.74;99850.00;10466910;28;20237;-68
2023/09/28 15:38:29;;;;;;;6.18;2.60;;;;;;;24.71;37.49;99819.00;10467143;28;20339;-68
2023/09/28 15:43:33;;;;;;;4.38;3.13;;;;;;;24.45;37.31;99812.72;10469762;28;20285;-69
2023/09/28 15:48:35;;;;;;;6.47;2.80;;;;;;;24.17;39.73;99805.94;10465815;28;20335;-69
2023/09/28 15:53:37;;;;;;;5.57;3.15;;;;;;;24.52;39.95;99782.34;10469082;28;20238;-69
2023/09/28 15:58:39;;;;;;;7.22;3.20;;;;;;;23.60;40.79;99827.75;10471702;28;20262;-69
2023/09/28 16:03:40;;;;;;;8.57;3.17;;;;;;;24.40;39.13;99801.00;10476789;28;20233;-68
2023/09/28 16:08:42;;;;;;;3.70;2.55;;;;;;;24.62;39.31;99804.19;10474345;28;20838;-69
2023/09/28 16:13:44;;;;;;;5.15;2.85;;;;;;;25.43;38.56;99774.81;10476529;28;20239;-69
2023/09/28 16:18:46;;;;;;;4.65;2.78;;;;;;;25.28;39.03;99794.91;10451649;28;20608;-69
2023/09/28 16:23:47;;;;;;;7.30;3.40;;;;;;;25.03;39.58;99809.53;10473396;28;20314;-68
2023/09/28 16:28:49;;;;;;;4.30;2.88;;;;;;;25.28;38.90;99780.41;10472561;28;20234;-69
2023/09/28 16:33:51;;;;;;;4.88;2.83;;;;;;;25.44;38.68;99792.91;10475342;28;20228;-69
2023/09/28 16:38:53;;;;;;;5.40;3.17;;;;;;;24.09;40.19;99848.31;10472858;28;20227;-69
2023/09/28 16:43:55;;;;;;;5.82;2.80;;;;;;;25.08;39.66;99801.28;10474850;28;20238;-68
2023/09/28 16:48:57;;;;;;;4.60;2.72;;;;;;;24.61;40.90;99818.16;10471285;28;20243;-68
2023/09/28 16:53:58;;;;;;;7.07;2.88;;;;;;;24.85;40.40;99775.41;10472558;28;20634;-71
2023/09/28 16:59:00;;;;;;;4.50;3.15;;;;;;;25.27;40.04;99776.03;10470724;28;20246;-69
2023/09/28 17:04:02;;;;;;;6.13;3.55;;;;;;;24.16;41.98;99824.25;10471194;28;20238;-69
2023/09/28 17:09:04;;;;;;;5.20;3.45;;;;;;;23.90;42.72;99801.56;10467399;28;20227;-70
2023/09/28 17:14:07;;;;;;;5.10;2.92;;;;;;;24.10;41.75;99792.53;10469150;28;20310;-70
2023/09/28 17:19:09;;;;;;;5.55;3.20;;;;;;;24.18;40.70;99811.13;10468082;28;20323;-72
2023/09/28 17:24:11;;;;;;;3.17;2.42;;;;;;;23.58;41.14;99834.56;10469739;28;20232;-71
2023/09/28 17:29:13;;;;;;;3.88;2.95;;;;;;;22.86;42.47;99842.50;10466777;28;20242;-69
2023/09/28 17:34:16;;;;;;;5.95;3.20;;;;;;;22.30;43.67;99842.94;10470814;28;20259;-70
2023/09/28 17:39:18;;;;;;;6.40;2.97;;;;;;;23.11;42.42;99814.50;10467864;28;20285;-68
2023/09/28 17:44:20;;;;;;;6.40;3.22;;;;;;;21.49;45.59;99850.13;10470580;28;20729;-67
2023/09/28 17:49:22;;;;;;;4.15;3.15;;;;;;;21.24;46.66;99799.75;10468261;28;20585;-69
2023/09/28 17:54:24;;;;;;;6.82;3.53;;;;;;;20.93;46.01;99817.59;10471821;28;20326;-69
2023/09/28 17:59:26;;;;;;;5.78;3.08;;;;;;;22.32;43.12;99805.38;10469511;28;20314;-68
2023/09/28 18:04:28;;;;;;;6.38;3.30;;;;;;;23.86;41.29;99826.97;10468368;28;20258;-70
2023/09/28 18:09:30;;;;;;;5.38;3.20;;;;;;;21.85;44.66;99896.78;10467676;28;20239;-72
2023/09/28 18:14:31;;;;;;;3.63;2.60;;;;;;;21.60;44.44;99895.44;10466614;28;20264;-73
2023/09/28 18:19:33;;;;;;;3.55;2.80;;;;;;;21.26;45.52;99859.38;10467943;28;20545;-73
2023/09/28 18:24:36;;;;;;;3.78;2.80;;;;;;;21.08;45.05;99865.94;10467598;28;21058;-73
2023/09/28 18:29:38;;;;;;;7.10;3.70;;;;;;;21.00;45.26;99894.41;10464498;28;20354;-71
2023/09/28 18:34:41;;;;;;;4.65;3.22;;;;;;;20.67;45.86;99887.13;10469798;28;20332;-74
2023/09/28 18:39:43;;;;;;;5.97;4.07;;;;;;;23.00;41.71;99867.41;10464959;28;20230;-72
2023/09/28 18:44:44;;;;;;;6.75;3.70;;;;;;;21.02;45.34;99929.50;10462119;28;20684;-72
2023/09/28 18:49:47;;;;;;;4.03;3.03;;;;;;;20.61;45.69;99918.81;10465956;28;20738;-71
2023/09/28 18:54:49;;;;;;;5.35;3.40;;;;;;;23.01;41.22;99910.78;10465420;28;20239;-71
2023/09/28 18:59:51;;;;;;;8.95;3.38;;;;;;;20.88;46.90;99914.63;10465422;28;20719;-71
2023/09/28 19:04:55;;;;;;;5.50;3.78;;;;;;;23.18;42.66;99904.31;10467480;28;20981;-71
2023/09/28 19:09:57;;;;;;;5.38;3.63;;;;;;;23.23;42.31;99907.91;10462621;28;20231;-72
2023/09/28 19:15:01;;;;;;;4.32;3.33;;;;;;;23.29;41.97;99927.84;10471350;28;20227;-72
2023/09/28 19:20:06;;;;;;;5.18;3.33;;;;;;;22.95;42.62;99930.94;10466000;28;20227;-72
2023/09/28 19:25:08;;;;;;;7.63;4.20;;;;;;;22.53;43.22;99957.09;10467455;28;20231;-72
2023/09/28 19:30:10;;;;;;;4.65;3.30;;;;;;;22.14;43.99;99964.66;10474590;28;20567;-72
2023/09/28 19:35:12;;;;;;;8.18;2.90;;;;;;;22.96;42.54;99938.06;10477989;28;20616;-71
2023/09/28 19:40:14;;;;;;;5.78;3.28;;;;;;;23.15;42.32;99924.81;10471459;28;20296;-71
2023/09/28 19:45:16;;;;;;;6.90;3.42;;;;;;;21.24;45.53;99986.69;10477869;28;20255;-71
2023/09/28 19:50:21;;;;;;;5.88;3.30;;;;;;;23.50;42.46;99906.94;10475966;28;20227;-70
2023/09/28 19:55:23;;;;;;;7.55;4.18;;;;;;;22.26;44.45;99983.56;10469420;28;20803;-71
2023/09/28 20:00:24;;;;;;;6.57;3.33;;;;;;;20.88;46.64;99985.34;10475803;28;20709;-69
2023/09/28 20:05:26;;;;;;;5.28;3.03;;;;;;;21.90;44.61;99962.19;10474197;28;20245;-72
2023/09/28 20:10:28;;;;;;;5.93;3.55;;;;;;;20.67;47.79;99930.63;10473023;28;20255;-70
2023/09/28 20:15:29;;;;;;;5.95;3.50;;;;;;;19.08;50.55;99954.72;10475118;28;20270;-71
2023/09/28 20:20:32;;;;;;;7.47;3.97;;;;;;;20.82;47.19;99933.59;10473804;28;20317;-73
2023/09/28 20:25:34;;;;;;;4.82;3.30;;;;;;;22.57;44.70;99893.88;10471968;28;20232;-72
2023/09/28 20:30:36;;;;;;;5.47;3.80;;;;;;;22.44;45.24;99925.13;10473842;28;20246;-71
2023/09/28 20:35:45;;;;;;;5.22;3.38;;;;;;;20.95;47.11;99981.38;10479862;28;20339;-72
2023/09/28 20:40:47;;;;;;;5.82;3.85;;;;;;;20.08;49.10;99937.22;10475012;28;20235;-72
2023/09/28 20:45:50;;;;;;;5.50;3.78;;;;;;;21.60;47.02;99889.16;10474891;28;20234;-73
2023/09/28 20:50:54;;;;;;;4.88;3.63;;;;;;;22.70;44.85;99920.69;10469911;28;20227;-72
2023/09/28 20:55:55;;;;;;;7.20;3.72;;;;;;;22.34;45.70;99970.28;10473370;28;20231;-71
2023/09/28 21:00:57;;;;;;;5.07;3.40;;;;;;;18.69;51.59;99976.84;10465875;28;20245;-69
2023/09/28 21:05:59;;;;;;;8.70;4.30;;;;;;;18.49;52.98;99925.72;10466380;28;20342;-70
2023/09/28 21:11:01;;;;;;;6.68;4.00;;;;;;;19.74;50.03;99982.50;10469222;28;20258;-69
2023/09/28 21:16:03;;;;;;;8.43;4.38;;;;;;;17.92;54.60;99937.78;10473051;28;20741;-69
2023/09/28 21:21:05;;;;;;;6.78;4.75;;;;;;;18.78;53.02;99886.00;10466367;28;20788;-70
2023/09/28 21:26:06;;;;;;;6.13;3.75;;;;;;;18.23;54.41;99899.84;10472637;28;20269;-70
2023/09/28 21:31:09;;;;;;;6.35;4.22;;;;;;;18.09;55.28;99886.50;10469786;28;20899;-70
2023/09/28 21:36:11;;;;;;;7.25;4.30;;;;;;;19.80;51.05;99900.06;10472045;28;20231;-70
2023/09/28 21:41:15;;;;;;;7.57;4.10;;;;;;;21.70;47.09;99948.38;10466407;28;20235;-70
2023/09/28 21:46:21;;;;;;;6.05;3.75;;;;;;;21.41;47.05;99976.59;10472102;28;20324;-70
2023/09/28 21:51:23;;;;;;;4.93;3.30;;;;;;;21.72;46.48;99993.31;10470251;28;20261;-70
2023/09/28 21:56:25;;;;;;;4.15;3.35;;;;;;;21.65;46.26;99995.41;10466711;28;20801;-70
2023/09/28 22:01:27;;;;;;;5.13;3.58;;;;;;;21.44;46.98;100009.84;10465001;28;20602;-69
2023/09/28 22:06:28;;;;;;;7.78;3.60;;;;;;;21.91;45.63;99977.47;10469541;28;20656;-70
2023/09/28 22:11:30;;;;;;;5.75;3.60;;;;;;;21.09;47.42;100028.09;10468211;28;20243;-69
2023/09/28 22:16:32;;;;;;;6.88;3.72;;;;;;;21.17;46.85;100005.06;10467867;28;20239;-70
2023/09/28 22:21:34;;;;;;;4.60;3.50;;;;;;;21.44;46.13;99988.06;10469594;28;20357;-69
2023/09/28 22:26:36;;;;;;;5.68;3.58;;;;;;;21.27;46.31;99994.34;10469840;28;20686;-70
2023/09/28 22:31:40;;;;;;;4.72;3.90;;;;;;;21.24;46.76;99995.66;10465630;28;20312;-69
2023/09/28 22:36:42;;;;;;;4.82;3.90;;;;;;;21.31;46.87;99968.28;10465899;28;20302;-70
2023/09/28 22:41:44;;;;;;;5.05;4.00;;;;;;;20.11;48.65;100037.25;10464034;28;20231;-70
2023/09/28 22:46:47;;;;;;;7.32;5.03;;;;;;;19.51;50.94;99976.00;10469034;28;20235;-70
2023/09/28 22:51:49;;;;;;;6.53;4.80;;;;;;;19.98;49.91;99975.06;10461573;28;20239;-70
2023/09/28 22:56:50;;;;;;;6.03;4.63;;;;;;;20.36;49.02;100006.19;10465908;28;20601;-69
2023/09/28 23:01:52;;;;;;;6.55;4.32;;;;;;;19.29;51.33;99975.81;10462885;28;20249;-70
2023/09/28 23:06:54;;;;;;;8.05;4.90;;;;;;;20.77;48.99;99936.25;10464355;28;20680;-70
2023/09/28 23:11:56;;;;;;;5.95;4.78;;;;;;;20.25;49.06;100001.66;10465819;28;20227;-71
2023/09/28 23:17:01;;;;;;;7.00;5.05;;;;;;;20.58;48.60;99990.03;10465697;28;20266;-70
2023/09/28 23:22:06;;;;;;;5.65;4.63;;;;;;;19.77;50.25;100014.56;10463788;28;20238;-69
2023/09/28 23:27:07;;;;;;;5.68;4.22;;;;;;;20.63;47.93;99986.53;10465712;28;20231;-69